Osceola, Iowa
Current Conditions -  °F | °C
As of 9:35 AM on Friday 28 Nov 2014 (Local Time) from KI75 Reporting Station
Clear Clear  
Wind Chill: 24°   Ceiling: Unl
Heat Index: 33°   Visibility: 10mi
Dew Point: 27°   Wind: 14mph
Humidity: 76%   Direction: 180°S
Pressure: 29.91"   Gusts: NA
Location:  41.03°N, 93.77°W
Report Text: KI75 281535Z AUTO 18012KT 10SM CLR 01/M03 A2991 RMK AO2 T00081030
Loading
Personal Weather Stations






























Interactive Weather Map New forecast layout! Learn more

10-Day Weather Forecast

Advertisements
Track Severe Weather on mobile